Time;durP1;ratioP1;P1;durP2;ratioP2;P2;SDS_P1;SDS_P2;PMS_P1;PMS_P2;Temp;Humidity;BMP_temperature;BMP_pressure;BME280_temperature;BME280_humidity;BME280_pressure;Samples;Min_cycle;Max_cycle;Signal;HPM_P1;HPM_P2
2021/08/18 00:02:03;;;;;;;4.90;3.88;;;;;;;22.72;61.08;99703.88;5033107;28;20057;-77
2021/08/18 00:04:30;;;;;;;4.82;3.85;;;;;;;22.99;60.59;99705.38;5032527;28;20092;-78
2021/08/18 00:06:57;;;;;;;10.77;3.80;;;;;;;22.82;60.88;99701.06;5033127;28;20067;-78
2021/08/18 00:09:24;;;;;;;8.30;3.95;;;;;;;22.67;61.42;99703.56;5032410;28;20050;-80
2021/08/18 00:11:51;;;;;;;6.93;4.13;;;;;;;22.62;61.70;99707.72;5032629;28;20112;-79
2021/08/18 00:14:18;;;;;;;7.72;4.00;;;;;;;22.59;61.81;99708.06;5032956;28;20100;-78
2021/08/18 00:16:46;;;;;;;14.85;4.47;;;;;;;22.74;61.34;99709.88;5032438;28;20190;-78
2021/08/18 00:19:13;;;;;;;6.82;3.78;;;;;;;22.61;61.42;99698.91;5014789;28;20033;-78
2021/08/18 00:21:40;;;;;;;9.43;4.28;;;;;;;22.71;61.20;99701.41;5022559;28;20629;-79
2021/08/18 00:24:06;;;;;;;7.75;4.53;;;;;;;22.51;61.88;99698.25;5031084;28;20033;-78
2021/08/18 00:26:33;;;;;;;7.60;3.70;;;;;;;22.26;62.81;99699.25;5032010;28;20053;-79
2021/08/18 00:29:00;;;;;;;8.43;4.32;;;;;;;22.46;62.24;99696.09;5031901;28;20053;-79
2021/08/18 00:31:27;;;;;;;6.47;3.83;;;;;;;22.10;63.41;99700.03;5031736;28;20041;-79
2021/08/18 00:33:54;;;;;;;8.70;4.60;;;;;;;22.35;62.33;99699.09;5032002;28;20034;-78
2021/08/18 00:36:20;;;;;;;7.38;3.65;;;;;;;22.49;62.31;99705.56;5032284;28;20092;-78
2021/08/18 00:38:47;;;;;;;6.32;3.83;;;;;;;22.32;62.74;99699.44;5031538;28;20092;-78
2021/08/18 00:41:14;;;;;;;10.32;3.83;;;;;;;22.35;62.75;99699.09;5032358;28;20042;-79
2021/08/18 00:43:42;;;;;;;7.90;4.03;;;;;;;22.60;61.89;99707.06;5031744;28;20053;-79
2021/08/18 00:46:08;;;;;;;4.50;3.40;;;;;;;22.25;63.04;99705.56;5031828;28;20053;-79
2021/08/18 00:48:36;;;;;;;9.63;4.65;;;;;;;22.57;61.93;99702.06;5034475;28;20045;-77
2021/08/18 00:51:03;;;;;;;8.38;3.40;;;;;;;22.79;61.09;99704.03;5041933;28;20103;-76
2021/08/18 00:53:30;;;;;;;7.30;3.40;;;;;;;22.72;61.55;99703.06;5033491;28;20041;-79
2021/08/18 00:55:57;;;;;;;8.75;3.55;;;;;;;22.53;61.95;99701.59;5032462;28;20038;-78
2021/08/18 00:58:24;;;;;;;14.43;4.15;;;;;;;22.80;60.80;99707.53;5032544;28;20057;-79
2021/08/18 01:00:51;;;;;;;4.28;2.78;;;;;;;23.01;60.72;99705.22;5030059;28;20064;-79
2021/08/18 01:03:18;;;;;;;8.73;3.47;;;;;;;22.75;61.00;99700.09;5036373;28;20054;-79
2021/08/18 01:05:45;;;;;;;8.65;3.45;;;;;;;22.54;61.93;99694.47;5035662;28;20095;-79
2021/08/18 01:08:12;;;;;;;6.50;4.30;;;;;;;22.48;62.51;99699.44;5036148;28;20048;-79
2021/08/18 01:10:39;;;;;;;9.68;3.47;;;;;;;22.51;62.43;99702.75;5036036;28;20377;-78
2021/08/18 01:13:06;;;;;;;14.73;4.15;;;;;;;22.26;62.88;99697.41;5036086;28;20060;-79
2021/08/18 01:15:34;;;;;;;6.20;3.05;;;;;;;22.38;62.21;99697.94;5035613;28;20459;-79
2021/08/18 01:18:03;;;;;;;11.10;3.58;;;;;;;22.49;61.92;99701.09;5035998;28;20057;-79
2021/08/18 01:20:38;;;;;;;4.88;3.22;;;;;;;22.31;63.18;99702.25;5035194;28;20055;-79
2021/08/18 01:23:05;;;;;;;;;;;;;;;22.96;60.62;99707.56;5036183;28;20046;-79
2021/08/18 01:25:34;;;;;;;9.13;3.88;;;;;;;22.59;61.39;99710.72;5035790;28;19983;-79
2021/08/18 01:28:02;;;;;;;7.57;3.42;;;;;;;22.81;61.01;99711.88;5035465;28;20053;-78
2021/08/18 01:30:30;;;;;;;7.55;3.60;;;;;;;22.84;60.78;99716.81;5035602;28;20060;-79
2021/08/18 01:33:06;;;;;;;5.43;3.88;;;;;;;22.61;61.49;99724.66;5035385;28;20550;-78
2021/08/18 01:35:37;;;;;;;7.07;4.20;;;;;;;22.60;61.54;99707.06;5034226;28;20175;-79
2021/08/18 01:38:07;;;;;;;7.20;3.28;;;;;;;22.11;63.04;99722.97;5035051;28;20103;-79
2021/08/18 01:40:35;;;;;;;10.15;4.75;;;;;;;22.55;61.97;99725.31;5035157;28;20042;-79
2021/08/18 01:43:03;;;;;;;7.80;4.57;;;;;;;22.36;62.73;99732.59;5034902;28;20069;-79
2021/08/18 01:45:39;;;;;;;10.43;5.47;;;;;;;22.80;61.31;99740.25;5035743;28;20396;-78
2021/08/18 01:48:11;;;;;;;6.25;4.32;;;;;;;22.82;61.11;99738.25;5034849;28;20538;-78
2021/08/18 01:50:47;;;;;;;10.20;5.70;;;;;;;22.26;62.52;99741.72;5035373;28;20096;-78
2021/08/18 01:53:20;;;;;;;11.88;4.63;;;;;;;21.88;64.25;99743.94;5034995;28;20042;-78
2021/08/18 01:55:47;;;;;;;9.60;4.85;;;;;;;21.60;65.63;99746.84;5035420;28;20377;-79
2021/08/18 01:58:14;;;;;;;9.82;5.60;;;;;;;21.79;65.06;99751.06;5034972;28;20457;-80
2021/08/18 02:00:41;;;;;;;6.72;4.80;;;;;;;21.60;65.74;99757.44;5035246;28;20092;-79
2021/08/18 02:03:08;;;;;;;8.38;5.63;;;;;;;21.33;66.88;99761.13;5035211;28;20107;-80
2021/08/18 02:05:36;;;;;;;24.23;6.03;;;;;;;21.21;67.48;99762.34;5034841;28;20077;-80
2021/08/18 02:08:03;;;;;;;14.82;6.00;;;;;;;21.15;67.79;99757.69;5035011;28;20111;-80
2021/08/18 02:10:30;;;;;;;10.15;5.38;;;;;;;21.11;67.77;99756.34;5034223;28;20100;-79
2021/08/18 02:12:57;;;;;;;11.60;5.45;;;;;;;21.01;68.27;99755.59;5034807;28;20492;-79
2021/08/18 02:15:31;;;;;;;7.57;4.72;;;;;;;21.27;67.05;99753.78;5034582;28;20045;-79
2021/08/18 02:18:01;;;;;;;8.55;4.82;;;;;;;21.35;66.54;99745.06;5034893;28;20037;-78
2021/08/18 02:20:31;;;;;;;8.57;4.97;;;;;;;21.22;66.69;99755.22;5034461;28;20041;-76
2021/08/18 02:22:58;;;;;;;14.27;5.72;;;;;;;21.18;66.94;99758.19;5035014;28;20045;-78
2021/08/18 02:25:25;;;;;;;6.53;5.18;;;;;;;21.32;66.33;99759.47;5034256;28;20046;-78
2021/08/18 02:27:52;;;;;;;17.25;5.63;;;;;;;21.16;66.70;99768.13;5034685;28;20037;-79
2021/08/18 02:30:22;;;;;;;12.57;5.30;;;;;;;21.64;64.63;99763.28;5034317;28;20045;-78
2021/08/18 02:32:49;;;;;;;9.15;4.68;;;;;;;21.67;64.25;99763.75;5034314;28;20049;-78
2021/08/18 02:35:17;;;;;;;7.80;4.32;;;;;;;21.25;65.79;99752.25;5034243;28;20084;-78
2021/08/18 02:37:44;;;;;;;4.95;4.28;;;;;;;21.00;66.97;99768.03;5034144;28;20045;-78
2021/08/18 02:40:12;;;;;;;8.85;4.60;;;;;;;21.02;67.05;99778.44;5034086;28;20395;-80
2021/08/18 02:42:39;;;;;;;13.38;4.63;;;;;;;21.31;65.90;99776.38;5034121;28;20095;-80
2021/08/18 02:45:06;;;;;;;8.02;4.10;;;;;;;21.18;66.46;99783.88;5034335;28;20030;-79
2021/08/18 02:47:34;;;;;;;8.25;4.32;;;;;;;21.40;65.48;99787.84;5033813;28;20357;-79
2021/08/18 02:50:02;;;;;;;9.07;5.22;;;;;;;20.56;68.28;99785.69;5034298;28;20049;-79
2021/08/18 02:52:28;;;;;;;29.50;6.05;;;;;;;20.81;67.45;99786.75;5034454;28;20037;-80
2021/08/18 02:54:55;;;;;;;8.30;6.13;;;;;;;21.01;66.41;99788.22;5034046;28;20045;-79
2021/08/18 02:57:22;;;;;;;12.02;4.15;;;;;;;21.04;66.00;99782.63;5034076;28;20067;-79
2021/08/18 02:59:49;;;;;;;7.10;4.22;;;;;;;20.91;66.26;99782.19;5033610;28;20451;-80
2021/08/18 03:02:15;;;;;;;18.48;5.20;;;;;;;20.98;66.30;99790.34;5033795;28;20084;-79
2021/08/18 03:04:42;;;;;;;10.43;4.45;;;;;;;21.09;65.73;99790.09;5033604;28;20468;-78
2021/08/18 03:07:09;;;;;;;5.38;4.55;;;;;;;21.00;66.12;99791.03;5033747;28;20545;-79
2021/08/18 03:09:36;;;;;;;8.45;4.60;;;;;;;20.81;66.63;99792.88;5033749;28;20423;-79
2021/08/18 03:12:03;;;;;;;6.82;4.65;;;;;;;20.89;66.29;99792.13;5033840;28;20046;-79
2021/08/18 03:14:30;;;;;;;7.28;3.90;;;;;;;21.02;65.47;99797.00;5033504;28;20042;-79
2021/08/18 03:16:58;;;;;;;16.48;7.07;;;;;;;20.66;66.86;99800.53;5033793;28;20045;-79
2021/08/18 03:19:24;;;;;;;7.47;4.63;;;;;;;20.67;66.79;99796.91;5033624;28;20037;-78
2021/08/18 03:21:51;;;;;;;6.25;3.45;;;;;;;20.61;67.18;99799.31;5032848;28;20121;-78
2021/08/18 03:24:18;;;;;;;6.57;3.88;;;;;;;20.86;66.29;99798.53;5033469;28;20095;-79
2021/08/18 03:26:46;;;;;;;10.73;3.88;;;;;;;20.54;67.34;99804.38;5033649;28;20072;-79
2021/08/18 03:29:12;;;;;;;14.25;4.13;;;;;;;20.67;67.15;99804.03;5033068;28;20041;-78
2021/08/18 03:31:40;;;;;;;6.40;3.95;;;;;;;20.55;67.82;99802.56;5032937;28;20490;-78
2021/08/18 03:34:10;;;;;;;7.70;4.55;;;;;;;20.57;67.82;99796.16;5033140;28;20084;-78
2021/08/18 03:36:36;;;;;;;6.40;4.57;;;;;;;20.58;67.61;99796.97;5031394;28;20040;-80
2021/08/18 03:39:04;;;;;;;7.57;3.88;;;;;;;20.62;67.61;99798.34;5032316;28;20042;-80
2021/08/18 03:41:31;;;;;;;8.00;4.47;;;;;;;20.72;67.27;99799.09;5032611;28;20042;-80
2021/08/18 03:43:58;;;;;;;10.63;4.68;;;;;;;20.59;67.62;99790.69;5032518;28;20065;-80
2021/08/18 03:46:25;;;;;;;6.35;4.15;;;;;;;20.45;68.37;99792.00;5033001;28;20060;-80
2021/08/18 03:48:51;;;;;;;9.63;4.88;;;;;;;20.50;68.09;99799.53;5032495;28;20037;-80
2021/08/18 03:51:18;;;;;;;6.63;4.72;;;;;;;20.35;68.43;99805.34;5033002;28;20111;-80
2021/08/18 03:53:45;;;;;;;9.25;4.28;;;;;;;20.38;68.50;99801.56;5032286;28;20033;-78
2021/08/18 03:56:12;;;;;;;5.55;3.80;;;;;;;20.52;67.75;99802.88;5032353;28;20488;-78
2021/08/18 03:58:38;;;;;;;7.65;4.75;;;;;;;21.10;65.97;99802.38;5030628;28;20037;-79
2021/08/18 04:01:06;;;;;;;9.90;4.22;;;;;;;20.71;67.04;99807.19;5032696;28;20045;-79
2021/08/18 04:03:36;;;;;;;8.27;4.30;;;;;;;20.77;66.95;99812.69;5031835;28;20131;-79
2021/08/18 04:06:03;;;;;;;8.27;4.88;;;;;;;21.10;65.47;99815.63;5032540;28;20034;-79
2021/08/18 04:08:30;;;;;;;5.50;3.78;;;;;;;20.57;67.62;99811.22;5032195;28;20065;-79
2021/08/18 04:10:56;;;;;;;8.25;4.38;;;;;;;20.76;66.87;99818.97;5031117;28;20044;-79
2021/08/18 04:13:24;;;;;;;6.65;3.47;;;;;;;20.82;66.63;99820.19;5032415;28;20045;-78
2021/08/18 04:15:51;;;;;;;7.43;4.15;;;;;;;20.58;67.56;99823.47;5032291;28;20042;-79
2021/08/18 04:18:18;;;;;;;8.07;4.28;;;;;;;20.59;67.46;99833.06;5032304;28;20037;-79
2021/08/18 04:20:45;;;;;;;5.65;3.38;;;;;;;20.91;66.58;99830.69;5031843;28;20049;-80
2021/08/18 04:23:12;;;;;;;11.88;5.45;;;;;;;20.67;67.45;99833.16;5032358;28;20088;-80
2021/08/18 04:25:39;;;;;;;8.15;4.22;;;;;;;20.58;67.53;99839.34;5030902;28;20077;-79
2021/08/18 04:28:06;;;;;;;4.97;3.78;;;;;;;20.54;67.61;99844.09;5031987;28;20412;-79
2021/08/18 04:30:33;;;;;;;4.60;3.63;;;;;;;21.15;65.34;99850.44;5030327;28;20045;-78
2021/08/18 04:32:59;;;;;;;6.72;3.50;;;;;;;21.26;64.74;99858.16;5029364;28;20037;-78
2021/08/18 04:35:26;;;;;;;5.30;3.17;;;;;;;21.37;64.04;99857.94;5031569;28;20037;-78
2021/08/18 04:37:56;;;;;;;11.25;4.00;;;;;;;21.23;64.55;99850.50;5031125;28;20049;-79
2021/08/18 04:40:24;;;;;;;6.10;3.38;;;;;;;20.57;66.73;99854.41;5032083;28;20045;-78
2021/08/18 04:42:51;;;;;;;7.63;4.25;;;;;;;20.76;66.37;99857.88;5030144;28;20041;-77
2021/08/18 04:45:19;;;;;;;5.53;3.55;;;;;;;20.86;65.78;99859.47;5028671;28;20045;-78
2021/08/18 04:47:46;;;;;;;6.28;3.75;;;;;;;20.78;66.23;99862.06;5031554;28;20040;-79
2021/08/18 04:50:17;;;;;;;12.25;4.55;;;;;;;20.56;66.80;99858.03;5027702;28;20368;-79
2021/08/18 04:52:46;;;;;;;11.45;4.38;;;;;;;21.54;63.37;99863.34;5029314;28;20095;-78
2021/08/18 04:55:15;;;;;;;7.95;4.13;;;;;;;21.63;62.78;99875.66;5031445;28;20033;-78
2021/08/18 04:57:42;;;;;;;7.22;3.88;;;;;;;21.41;63.54;99877.84;5031373;28;20057;-78
2021/08/18 05:00:10;;;;;;;6.20;3.33;;;;;;;21.33;64.14;99879.59;5031886;28;20445;-80
2021/08/18 05:02:37;;;;;;;6.93;3.30;;;;;;;21.54;63.17;99873.94;5030702;28;20033;-79
2021/08/18 05:05:04;;;;;;;8.40;3.35;;;;;;;21.31;64.00;99874.47;5031483;28;20033;-79
2021/08/18 05:07:31;;;;;;;7.53;3.58;;;;;;;21.56;63.30;99871.94;5019599;28;20044;-79
2021/08/18 05:09:58;;;;;;;4.03;3.33;;;;;;;22.25;61.09;99876.31;5027153;28;20058;-79
2021/08/18 05:12:27;;;;;;;21.13;4.65;;;;;;;21.63;62.96;99873.00;5019651;28;20503;-79
2021/08/18 05:14:54;;;;;;;12.55;3.88;;;;;;;22.08;61.37;99871.91;5026866;28;20083;-78
2021/08/18 05:17:20;;;;;;;5.35;3.88;;;;;;;21.66;63.25;99883.28;5027604;28;20046;-78
2021/08/18 05:19:47;;;;;;;16.17;6.07;;;;;;;21.51;63.97;99880.38;5024071;28;20034;-76
2021/08/18 05:22:14;;;;;;;10.77;4.43;;;;;;;21.62;63.75;99895.19;5028383;28;20549;-78
2021/08/18 05:24:41;;;;;;;4.80;3.80;;;;;;;21.88;62.71;99892.53;5025120;28;20038;-78
2021/08/18 05:27:08;;;;;;;7.38;3.20;;;;;;;21.54;63.32;99897.81;5026220;28;20045;-77
2021/08/18 05:29:42;;;;;;;8.63;4.25;;;;;;;21.94;61.28;99907.81;5023535;28;20092;-77
2021/08/18 05:32:10;;;;;;;3.78;2.80;;;;;;;22.05;60.79;99898.75;5027606;28;20038;-78
2021/08/18 05:34:38;;;;;;;3.03;2.78;;;;;;;22.02;60.95;99905.22;5025864;28;20038;-78
2021/08/18 05:37:05;;;;;;;7.00;3.08;;;;;;;22.36;59.40;99907.88;5023771;28;20484;-78
2021/08/18 05:39:31;;;;;;;5.78;2.97;;;;;;;22.56;57.49;99912.91;5025099;28;20448;-77
2021/08/18 05:42:00;;;;;;;4.00;2.30;;;;;;;22.93;57.08;99909.88;5024421;28;20507;-78
2021/08/18 05:44:27;;;;;;;4.95;2.63;;;;;;;23.04;55.07;99900.75;5027920;28;20550;-78
2021/08/18 05:46:54;;;;;;;5.70;2.08;;;;;;;22.86;55.67;99904.34;5030450;28;20046;-77
2021/08/18 05:49:21;;;;;;;4.60;2.00;;;;;;;22.34;56.59;99909.88;5030876;28;20053;-78
2021/08/18 05:51:49;;;;;;;3.38;2.15;;;;;;;22.42;55.81;99903.72;5033076;28;20112;-79
2021/08/18 05:54:17;;;;;;;5.00;2.30;;;;;;;22.94;54.79;99909.69;5032124;28;20046;-79
2021/08/18 05:56:44;;;;;;;6.30;2.05;;;;;;;23.15;53.72;99919.03;5030095;28;20125;-78
2021/08/18 05:59:11;;;;;;;6.25;1.70;;;;;;;23.49;52.17;99914.38;5034393;28;20081;-79
2021/08/18 06:01:37;;;;;;;1.73;1.63;;;;;;;23.31;52.29;99924.34;5032588;28;20041;-81
2021/08/18 06:04:04;;;;;;;2.10;1.17;;;;;;;23.12;51.77;99920.19;5031162;28;20038;-79
2021/08/18 06:06:31;;;;;;;5.75;1.45;;;;;;;23.45;51.38;99931.66;5042618;28;20041;-79
2021/08/18 06:08:58;;;;;;;6.80;2.25;;;;;;;23.14;51.54;99922.69;5035689;28;20041;-80
2021/08/18 06:11:25;;;;;;;4.35;1.70;;;;;;;23.16;51.77;99921.50;5033455;28;20064;-79
2021/08/18 06:13:53;;;;;;;4.45;1.40;;;;;;;23.06;51.59;99920.00;5030002;28;20153;-78
2021/08/18 06:16:21;;;;;;;4.40;1.55;;;;;;;22.97;51.54;99927.16;5031325;28;20103;-78
2021/08/18 06:18:48;;;;;;;6.10;1.90;;;;;;;23.11;51.14;99923.00;5031236;28;20054;-77
2021/08/18 06:21:16;;;;;;;2.90;1.30;;;;;;;22.90;51.93;99924.31;5031049;28;20071;-79
2021/08/18 06:23:47;;;;;;;4.05;1.63;;;;;;;23.01;51.43;99928.50;5029045;28;20084;-79
2021/08/18 06:26:15;;;;;;;7.13;1.35;;;;;;;23.58;50.37;99930.31;5031151;28;20088;-78
2021/08/18 06:28:42;;;;;;;3.88;1.80;;;;;;;23.66;50.53;99933.00;5033875;28;20038;-81
2021/08/18 06:31:09;;;;;;;7.43;1.75;;;;;;;23.52;49.88;99931.81;5034113;28;20046;-78
2021/08/18 06:33:36;;;;;;;2.83;1.27;;;;;;;23.62;50.62;99932.47;5033708;28;20066;-78
2021/08/18 06:36:03;;;;;;;5.85;1.42;;;;;;;23.54;50.43;99943.09;5033367;28;20041;-79
2021/08/18 06:38:31;;;;;;;3.67;1.20;;;;;;;23.69;50.43;99946.78;5033827;28;20056;-80
2021/08/18 06:40:58;;;;;;;4.18;1.63;;;;;;;23.41;51.32;99948.13;5034685;28;20824;-81
2021/08/18 06:43:25;;;;;;;3.05;1.38;;;;;;;23.04;52.30;99945.94;5020802;28;20060;-77
2021/08/18 06:45:52;;;;;;;4.80;1.95;;;;;;;23.38;51.45;99945.78;5020603;28;20053;-77
2021/08/18 06:48:20;;;;;;;1.95;1.23;;;;;;;22.96;52.55;99947.59;5019783;28;20049;-78
2021/08/18 06:50:46;;;;;;;7.03;1.40;;;;;;;23.24;52.04;99945.47;5029968;28;20053;-81
2021/08/18 06:53:13;;;;;;;1.40;1.20;;;;;;;23.17;52.05;99944.47;5029283;28;20518;-80
2021/08/18 06:55:40;;;;;;;6.30;1.88;;;;;;;22.99;53.08;99947.25;5020626;28;20038;-78
2021/08/18 06:58:07;;;;;;;2.55;1.15;;;;;;;23.37;52.13;99944.94;5023523;28;20068;-79
2021/08/18 07:00:34;;;;;;;8.20;1.88;;;;;;;23.13;53.07;99939.63;5025983;28;20088;-77
2021/08/18 07:03:01;;;;;;;10.40;2.03;;;;;;;23.05;53.46;99950.25;5028750;28;20046;-77
2021/08/18 07:05:32;;;;;;;8.20;2.20;;;;;;;23.41;52.60;99956.91;5029898;28;20046;-76
2021/08/18 07:07:59;;;;;;;7.57;1.63;;;;;;;23.34;52.71;99952.44;5025242;28;20408;-79
2021/08/18 07:10:25;;;;;;;2.63;1.88;;;;;;;23.20;53.04;99949.44;5029483;28;20464;-78
2021/08/18 07:12:52;;;;;;;5.55;1.63;;;;;;;23.02;53.60;99955.91;5029398;28;20557;-75
2021/08/18 07:15:21;;;;;;;7.35;2.42;;;;;;;23.26;53.07;99951.44;5019206;28;20042;-76
2021/08/18 07:17:47;;;;;;;6.20;1.90;;;;;;;23.25;53.05;99963.06;5024325;28;20041;-77
2021/08/18 07:20:16;;;;;;;2.83;1.60;;;;;;;23.46;52.61;99956.44;5022734;28;20134;-78
2021/08/18 07:22:43;;;;;;;18.48;2.92;;;;;;;22.83;53.76;99952.50;5020251;28;20476;-78
2021/08/18 07:25:11;;;;;;;10.38;2.35;;;;;;;23.12;54.04;99951.28;5024154;28;20049;-79
2021/08/18 07:27:38;;;;;;;14.63;3.28;;;;;;;23.35;53.29;99949.63;5028289;28;20048;-78
2021/08/18 07:30:05;;;;;;;2.55;1.50;;;;;;;23.65;52.33;99947.28;5030587;28;20037;-80
2021/08/18 07:32:32;;;;;;;2.58;1.52;;;;;;;23.53;52.22;99966.22;5031207;28;20127;-83
2021/08/18 07:34:59;;;;;;;8.98;2.50;;;;;;;23.69;52.08;99961.91;5030647;28;20041;-75
2021/08/18 07:37:29;;;;;;;6.45;2.55;;;;;;;23.52;52.39;99961.06;5029030;28;20057;-75
2021/08/18 07:39:57;;;;;;;4.93;1.85;;;;;;;23.65;52.33;99968.56;5018901;28;20042;-76
2021/08/18 07:42:24;;;;;;;2.72;1.70;;;;;;;23.42;52.87;99963.91;5025604;28;20073;-77
2021/08/18 07:44:51;;;;;;;7.32;2.00;;;;;;;23.57;52.63;99961.41;5027537;28;20064;-78
2021/08/18 07:47:18;;;;;;;3.72;1.67;;;;;;;23.47;53.01;99956.25;5027548;28;20048;-78
2021/08/18 07:49:44;;;;;;;5.20;2.05;;;;;;;23.63;52.52;99967.91;5020624;28;20038;-86
2021/08/18 07:52:11;;;;;;;6.40;2.55;;;;;;;23.58;52.62;99968.38;5030345;28;20041;-80
2021/08/18 07:54:38;;;;;;;6.55;2.53;;;;;;;23.48;52.42;99963.22;5031222;28;20049;-81
2021/08/18 07:57:05;;;;;;;3.53;1.83;;;;;;;23.45;52.84;99970.72;5028598;28;20069;-81
2021/08/18 07:59:32;;;;;;;11.05;2.25;;;;;;;23.86;51.91;99965.38;5026956;28;20457;-80
2021/08/18 08:02:00;;;;;;;4.80;1.90;;;;;;;23.86;51.47;99970.72;5031488;28;20903;-79
2021/08/18 08:04:27;;;;;;;5.75;2.47;;;;;;;23.80;52.07;99964.22;5031827;28;20041;-78
2021/08/18 08:06:54;;;;;;;5.57;1.80;;;;;;;23.95;51.20;99975.84;5031552;28;20049;-80
2021/08/18 08:09:21;;;;;;;5.43;1.67;;;;;;;23.62;52.07;99974.22;5030118;28;20428;-78
2021/08/18 08:11:47;;;;;;;3.22;1.70;;;;;;;24.02;51.20;99974.19;5032024;28;20045;-80
2021/08/18 08:14:14;;;;;;;3.80;2.08;;;;;;;23.93;50.82;99977.03;5032174;28;20033;-82
2021/08/18 08:16:41;;;;;;;6.47;1.60;;;;;;;24.07;50.83;99986.16;5031138;28;20046;-79
2021/08/18 08:19:08;;;;;;;3.00;1.95;;;;;;;24.00;50.99;99984.16;5030409;28;20037;-79
2021/08/18 08:21:34;;;;;;;3.40;1.45;;;;;;;24.13;50.65;99982.78;5030611;28;20050;-80
2021/08/18 08:24:03;;;;;;;2.08;1.52;;;;;;;24.21;50.44;99985.44;5032379;28;20087;-81
2021/08/18 08:26:30;;;;;;;3.58;1.90;;;;;;;23.90;51.19;99985.34;5030356;28;20099;-78
2021/08/18 08:28:57;;;;;;;2.88;1.45;;;;;;;23.98;51.32;99985.34;5032406;28;20041;-80
2021/08/18 08:31:24;;;;;;;2.92;1.63;;;;;;;24.28;49.98;99981.09;5030508;28;20499;-78
2021/08/18 08:33:51;;;;;;;6.22;1.65;;;;;;;24.19;50.72;99979.47;5026610;28;20446;-79
2021/08/18 08:36:17;;;;;;;5.07;2.03;;;;;;;24.14;50.76;99984.47;5031032;28;20046;-78
2021/08/18 08:38:44;;;;;;;6.28;1.95;;;;;;;23.97;51.18;99983.66;5030497;28;20087;-80
2021/08/18 08:41:11;;;;;;;2.92;2.00;;;;;;;24.11;51.07;99987.47;5030461;28;20349;-79
2021/08/18 08:43:40;;;;;;;3.05;1.90;;;;;;;23.72;51.67;99986.38;5031791;28;20041;-81
2021/08/18 08:46:08;;;;;;;2.95;2.05;;;;;;;24.10;50.65;99988.47;5031647;28;20033;-78
2021/08/18 08:48:35;;;;;;;5.32;1.80;;;;;;;23.86;51.38;99984.84;5031702;28;20071;-79
2021/08/18 08:51:02;;;;;;;4.93;1.90;;;;;;;23.91;51.33;99985.16;5029070;28;20073;-80
2021/08/18 08:53:29;;;;;;;3.00;2.40;;;;;;;24.27;50.64;99982.09;5031946;28;20042;-78
2021/08/18 08:55:56;;;;;;;4.50;1.75;;;;;;;24.36;50.59;99986.44;5031477;28;20041;-79
2021/08/18 08:58:23;;;;;;;7.07;2.38;;;;;;;24.35;50.38;99992.78;5031666;28;20420;-78
2021/08/18 09:00:50;;;;;;;4.68;2.15;;;;;;;24.19;51.20;99980.31;5032093;28;20049;-79
2021/08/18 09:03:24;;;;;;;6.70;2.50;;;;;;;24.63;49.89;99987.00;5031944;28;20179;-78
2021/08/18 09:05:52;;;;;;;;;;;;;;;24.41;50.76;99978.75;5031968;28;20072;-80
2021/08/18 09:08:21;;;;;;;7.57;1.77;;;;;;;24.52;50.28;99980.22;5030776;28;20016;-80
2021/08/18 09:11:03;;;;;;;3.90;1.77;;;;;;;24.63;50.51;99982.50;5030366;28;20120;-83
2021/08/18 09:13:59;;;;;;;4.15;1.88;;;;;;;24.58;50.43;99982.19;5033649;28;20037;-79
2021/08/18 09:16:34;;;;;;;1.77;1.40;;;;;;;24.64;50.07;99985.97;5026202;28;20072;-81
2021/08/18 09:19:01;;;;;;;5.95;1.92;;;;;;;24.89;50.43;99979.53;5038071;28;20042;-79
2021/08/18 09:21:40;;;;;;;3.15;1.42;;;;;;;25.03;49.84;99984.09;5033564;28;20103;-78
2021/08/18 09:24:24;;;;;;;10.02;2.13;;;;;;;24.97;49.92;99987.47;5034964;28;20049;-81
2021/08/18 09:27:08;;;;;;;3.00;1.60;;;;;;;24.91;50.41;99977.50;5033577;28;20041;-80
2021/08/18 09:29:45;;;;;;;8.13;2.40;;;;;;;25.32;48.71;99978.09;5031814;28;20521;-79
2021/08/18 09:32:35;;;;;;;2.92;1.45;;;;;;;25.27;49.12;99988.47;5033228;28;20037;-81
2021/08/18 09:35:12;;;;;;;5.15;2.22;;;;;;;24.92;49.98;99978.31;5033397;28;20496;-81
2021/08/18 09:37:44;;;;;;;4.22;2.13;;;;;;;25.06;49.98;99985.63;5032015;28;20048;-81
2021/08/18 09:40:24;;;;;;;3.63;2.03;;;;;;;25.34;49.19;99978.72;5029216;28;20037;-81
2021/08/18 09:42:53;;;;;;;4.40;1.73;;;;;;;25.16;50.10;99977.38;5047566;28;20393;-86
2021/08/18 09:45:24;;;;;;;4.32;2.08;;;;;;;25.11;50.23;99971.75;5032728;28;20038;-84
2021/08/18 09:48:06;;;;;;;2.83;1.80;;;;;;;25.23;49.73;99973.00;5033082;28;20408;-83
2021/08/18 09:50:40;;;;;;;3.35;1.85;;;;;;;25.19;49.82;99969.00;5031968;28;20111;-80
2021/08/18 09:53:19;;;;;;;2.08;1.60;;;;;;;25.00;50.21;99960.47;5033298;28;20076;-80
2021/08/18 09:55:58;;;;;;;4.20;2.33;;;;;;;25.16;50.39;99966.72;5030740;28;20048;-78
2021/08/18 09:58:38;;;;;;;3.70;1.88;;;;;;;25.34;49.89;99972.56;5034328;28;20045;-79
2021/08/18 10:01:14;;;;;;;5.30;2.13;;;;;;;25.26;50.63;99970.81;5031830;28;20049;-81
2021/08/18 10:03:43;;;;;;;10.55;2.08;;;;;;;25.42;50.18;99969.84;5033080;28;20044;-82
2021/08/18 10:06:12;;;;;;;3.83;2.50;;;;;;;25.54;50.02;99960.41;5032468;28;20084;-82
2021/08/18 10:08:41;;;;;;;3.35;1.73;;;;;;;25.68;49.48;99963.28;5033335;28;20075;-82
2021/08/18 10:11:11;;;;;;;4.65;2.17;;;;;;;25.43;50.12;99958.16;5032647;28;20041;-82
2021/08/18 10:13:38;;;;;;;4.40;2.65;;;;;;;25.72;49.19;99975.25;5033609;28;20053;-81
2021/08/18 10:16:05;;;;;;;5.05;1.92;;;;;;;25.62;49.71;99964.84;5032679;28;20045;-80
2021/08/18 10:18:35;;;;;;;7.75;2.38;;;;;;;25.54;50.37;99962.25;5034417;28;20136;-81
2021/08/18 10:21:06;;;;;;;3.75;1.73;;;;;;;25.55;49.58;99959.38;5035081;28;20064;-81
2021/08/18 10:23:39;;;;;;;2.30;2.10;;;;;;;25.61;49.19;99957.81;5034833;28;20065;-81
2021/08/18 10:26:08;;;;;;;4.47;1.80;;;;;;;25.63;49.08;99944.31;5034811;28;20480;-81
2021/08/18 10:29:16;;;;;;;4.35;2.13;;;;;;;25.67;49.04;99946.44;5034470;28;20099;-80
2021/08/18 10:31:43;;;;;;;3.70;1.45;;;;;;;25.64;48.37;99946.81;5032632;28;20492;-79
2021/08/18 10:34:22;;;;;;;5.20;2.03;;;;;;;26.00;47.55;99948.81;5033988;28;20053;-82
2021/08/18 10:36:51;;;;;;;7.85;2.65;;;;;;;25.98;46.95;99940.97;5034246;28;20037;-81
2021/08/18 10:39:18;;;;;;;3.22;1.98;;;;;;;26.16;46.03;99940.63;5033865;28;20042;-78
2021/08/18 10:41:57;;;;;;;2.85;1.50;;;;;;;26.09;46.38;99935.16;5034115;28;20052;-79
2021/08/18 10:44:45;;;;;;;2.63;2.00;;;;;;;25.86;46.75;99929.91;5033935;28;20049;-80
2021/08/18 10:47:37;;;;;;;6.25;2.08;;;;;;;26.29;46.91;99935.44;5034214;28;20466;-80
2021/08/18 10:50:13;;;;;;;6.63;2.28;;;;;;;26.27;46.96;99936.66;5034286;28;20088;-80
2021/08/18 10:52:42;;;;;;;3.17;2.17;;;;;;;26.26;46.54;99929.63;5034306;28;20037;-80
2021/08/18 10:55:12;;;;;;;5.93;2.00;;;;;;;26.23;46.05;99930.00;5033712;28;20124;-78
2021/08/18 10:57:51;;;;;;;2.38;1.83;;;;;;;26.28;45.79;99931.13;5034341;28;20073;-79
2021/08/18 11:00:19;;;;;;;4.30;1.88;;;;;;;26.50;45.70;99928.53;5034314;28;20050;-80
2021/08/18 11:03:07;;;;;;;2.88;2.38;;;;;;;26.47;45.67;99926.22;5037701;28;20046;-79
2021/08/18 11:05:37;;;;;;;5.35;1.88;;;;;;;26.36;46.06;99924.81;5050771;28;20101;-79
2021/08/18 11:08:06;;;;;;;4.93;2.10;;;;;;;26.47;45.76;99923.53;5046091;28;20053;-79
2021/08/18 11:10:59;;;;;;;4.88;1.90;;;;;;;26.60;44.84;99919.19;5034096;28;20041;-80
2021/08/18 11:13:39;;;;;;;3.80;2.25;;;;;;;26.70;43.82;99918.06;5002789;28;20049;-80
2021/08/18 11:16:07;;;;;;;3.72;1.52;;;;;;;26.54;43.91;99906.59;5033642;28;20112;-79
2021/08/18 11:18:43;;;;;;;4.03;1.48;;;;;;;26.66;43.83;99909.59;5033955;28;20554;-79
2021/08/18 11:21:16;;;;;;;3.92;2.10;;;;;;;26.67;43.67;99915.75;5033448;28;20045;-81
2021/08/18 11:23:49;;;;;;;8.25;1.92;;;;;;;26.79;42.73;99916.91;5027934;28;20048;-80
2021/08/18 11:26:22;;;;;;;2.53;1.80;;;;;;;26.87;42.79;99916.81;5031834;28;20104;-81
2021/08/18 11:29:11;;;;;;;4.78;2.35;;;;;;;26.82;42.98;99911.19;5031464;28;20041;-80
2021/08/18 11:31:48;;;;;;;2.80;1.80;;;;;;;26.88;43.53;99919.28;5032597;28;20041;-78
2021/08/18 11:34:35;;;;;;;3.72;1.90;;;;;;;26.88;43.50;99913.94;5033765;28;20403;-81
2021/08/18 11:37:07;;;;;;;4.90;1.52;;;;;;;26.85;43.31;99917.00;5027425;28;20501;-80
2021/08/18 11:39:37;;;;;;;1.80;1.42;;;;;;;27.00;42.77;99916.09;5033711;28;20057;-79
2021/08/18 11:42:19;;;;;;;3.88;2.05;;;;;;;26.82;43.55;99917.38;5034405;28;20044;-80